Skip to main content

NOAA/GLERL Met Station at Muskegon, MI

Previous 5 days (top of hour only)
See also Previous 3 Hours (2 minute increments)
Jump down to Data
Switch to [English][Metric]
Zoom: Click and drag, Pan: shift-click and drag, Unzoom: double-click, Unzoom All






Note: Speed = mean wind during 2-minute period at top of hour,
Gust = max wind during 2-minute period at top of hour,
Peak = max wind during entire hour.
• See also 5-day windrose plot


NOAA/GLERL Met Station at Muskegon, MI

Previous 5 days (top of hour only)
See also Previous 3 Hours (2 minute increments)
Jump up to Graphs
Switch to [English][Metric]
                  Wind  Wind  Wind   Air   Dew   Rel     Sta   PAR
                   Spd   Gst   Dir  Temp    Pt   Hum    Pres uE/m2/
YYYY-MM-DD   EST   m/s   m/s   deg     C     C     %      mb   sec
2017-11-20 10:00  11.2  12.4   250   5.9   1.7  74.5  990.50   786
2017-11-20 09:00  11.0  12.3   254   5.7   1.5  74.5  990.60   497
2017-11-20 08:00  11.5  12.8   256   6.0   1.9  75.0  991.10    73
2017-11-20 07:00  10.6  11.4   261   6.2   2.1  75.0  991.60     2
2017-11-20 06:00  11.4  12.1   274   5.7   1.4  73.7  991.60     2
2017-11-20 05:00  10.8  11.7   274   5.3   1.4  76.1  992.00     2
2017-11-20 04:00   9.6  11.4   276   5.1   1.0  74.8  992.20     2
2017-11-20 03:00  11.6  12.5   277   4.8   0.5  73.8  992.80     2
2017-11-20 02:00  11.4  12.3   277   4.3  -0.3  71.8  993.20     2
2017-11-20 01:00  11.7  13.1   285   3.5  -1.3  71.0  994.10     2
2017-11-20 00:00  10.9  11.9   289   3.0  -2.6  66.4  994.30     2
2017-11-19 23:00  10.3  11.8   286   2.9  -2.3  68.5  994.40     2
2017-11-19 22:00   9.5  10.8   291   2.4  -4.1  62.0  994.10     2
2017-11-19 21:00  10.4  12.4   301   1.9  -4.5  62.5  994.40     2
2017-11-19 20:00  10.6  11.5   303   1.6  -5.1  61.3  994.20     2
2017-11-19 19:00   9.5  11.9   302   1.3  -5.1  62.3  994.20     2
2017-11-19 18:00   9.1  10.1   306   0.8  -5.5  62.6  993.90     2
2017-11-19 17:00   9.1  10.1   318   0.2  -5.7  64.7  993.80    67
2017-11-19 15:00   9.6  11.2   328  -0.4  -5.1  70.6  993.50   187
2017-11-19 14:00  10.4  11.6   311  -0.4  -5.3  69.5  993.50   166
2017-11-19 13:00   9.7  11.1   337  -0.2  -5.8  66.0  993.10   143
2017-11-19 12:00   9.3  10.9   320  -0.2  -5.5  67.4  992.90   179
2017-11-19 11:00  10.2  11.8   328   0.2  -4.9  68.8  992.80   176
2017-11-19 10:00  10.3  12.2   331   0.4  -4.9  67.8  992.10   105
2017-11-19 09:00  10.8  12.5   322   0.9  -3.9  70.2  991.40    29
2017-11-19 08:00  12.2  13.5   333   1.3  -3.5  70.5  990.60     6
2017-11-19 07:00  10.3  11.6   334   1.6  -2.5  74.1  989.80     2
2017-11-19 06:00  10.4  13.0   343   2.3  -2.2  71.9  989.40     2
2017-11-19 05:00  13.5  15.3   344   2.7  -2.6  68.1  988.30     2
2017-11-19 04:00  11.3  13.1   345   3.0  -1.5  72.1  988.00     2
2017-11-19 03:00  13.0  14.2   349   3.0  -1.2  73.8  987.40     2
2017-11-19 02:00   5.0   7.1    28   1.3  -0.3  88.9  986.60     2
2017-11-19 01:00  14.6  16.5   354   2.3   0.6  88.4  986.20     2
2017-11-19 00:00   9.6  12.5     3   2.8   0.0  82.0  985.20     2
2017-11-18 23:00  12.4  15.2     3   3.2   0.9  85.1  984.10     2
2017-11-18 22:00   8.3  10.1    20   3.1   1.3  88.2  982.90     2
2017-11-18 21:00   9.3  11.7     7   4.3   1.1  79.9  981.40     2
2017-11-18 20:00  10.4  13.4     7   4.8   0.7  74.7  980.40     2
2017-11-18 19:00   9.5  12.4     1   4.8   2.9  87.2  979.80     2
2017-11-18 18:00   6.8   9.9    13   4.6   3.3  91.1  978.80     2
2017-11-18 17:00   6.9   8.5    16   4.7   3.4  91.4  978.00    11
2017-11-18 16:00   9.5  11.6    22   5.0   3.4  89.4  976.80    31
2017-11-18 15:00   7.1   9.3     8   5.1   4.1  93.4  976.30    65
2017-11-18 14:00   3.8   4.8    27   4.7   4.1  96.2  975.70    94
2017-11-18 13:00   5.3   7.0    37   4.4   3.7  95.3  975.60   164
2017-11-18 12:00   6.3   7.6    24   4.3   3.3  92.9  976.90   116
2017-11-18 11:00   3.6   4.8     4   5.0   4.1  93.8  977.80    58
2017-11-18 10:00   1.0   1.4     9   5.1   4.0  92.6  978.00    28
2017-11-18 09:00   1.4   1.9    26   5.1   4.0  92.7  978.40    37
2017-11-18 08:00   2.8   3.7    69   5.1   3.9  92.2  977.70    21
2017-11-18 07:00   3.4   4.5    39   5.2   4.0  91.9  978.00     2
2017-11-18 06:00   4.7   5.3    26   5.6   4.5  92.6  978.80     2
2017-11-18 05:00   4.6   5.5    20   6.4   4.7  89.1  978.70     2
2017-11-18 04:00   7.2   7.5   330   6.9   5.4  90.4  978.70     2
2017-11-18 03:00   6.0   6.3   307   7.4   6.1  91.2  979.00     2
2017-11-18 02:00   8.5   9.4   275   7.8   7.0  94.6  979.90     2
2017-11-18 01:00   9.6  10.3   236   7.6   7.1  96.5  980.20     2
2017-11-18 00:00  11.1  12.0   228   7.4   6.8  96.1  981.40     2
2017-11-17 23:00   8.7   9.6   199   6.5   6.2  97.8  982.00     2
2017-11-17 22:00   5.8   6.4   175   4.9   4.5  97.3  982.70     2
2017-11-17 21:00   1.2   2.3   167   5.3   2.9  84.6  983.60     2
2017-11-17 20:00   6.6   9.5   159   5.2   2.3  81.7  983.60     2
2017-11-17 19:00   6.8   9.7   159   4.9   2.4  83.9  985.30     2
2017-11-17 18:00   5.8   7.9   161   4.7   2.3  84.4  987.40     2
2017-11-17 17:00   6.7   8.8   167   6.3  -0.4  61.9  988.60    11
2017-11-17 16:00   4.6   6.7   155   6.2  -0.3  62.8  989.40    94
2017-11-17 15:00   2.6   4.3   158   5.5  -0.4  65.5  991.10   222
2017-11-17 14:00   4.9   6.4   164   5.1  -0.7  65.9  991.70   378
2017-11-17 13:00   5.8   8.6   161   4.0  -0.8  70.6  993.40   483
2017-11-17 12:00   4.3   6.1   158   3.1  -0.6  76.7  995.40   318
2017-11-17 11:00   3.4   5.1   163   2.4  -0.8  79.1  997.40   187
2017-11-17 10:00   5.5   7.8   156   2.1  -1.0  79.7  997.80   240
2017-11-17 09:00   5.5   7.1   150   1.5  -1.3  81.8  998.50   255
2017-11-17 08:00   6.0   7.7   164   1.4  -1.3  82.2  999.30    29
2017-11-17 07:00   4.7   6.7   170   0.7  -2.0  82.3 1000.40     2
2017-11-17 06:00   5.9   8.3   135   0.1  -2.4  83.0 1000.20     2
2017-11-17 05:00   4.9   5.7   132  -0.2  -2.7  83.0 1000.80     2
2017-11-17 04:00   5.2   5.9   132  -0.3  -3.0  81.7 1002.00     2
2017-11-17 03:00   5.0   6.6   127  -0.3  -3.0  82.1 1002.10     2
2017-11-17 02:00   3.8   4.8   121  -0.3  -3.1  81.6 1002.30     2
2017-11-17 01:00   5.0   6.2   127  -0.5  -2.9  84.1 1002.00     2
2017-11-17 00:00   3.6   4.4   115   0.1  -3.0  79.9 1002.30     2
2017-11-16 23:00   2.9   3.6    88   0.2  -2.3  83.1 1002.80     2
2017-11-16 22:00   2.9   3.6    71  -0.1  -2.4  84.8 1003.40     2
2017-11-16 21:00   3.4   3.7    49  -0.2  -2.2  86.2 1003.30     2
2017-11-16 20:00   3.6   3.9    20   0.1  -1.4  89.8 1003.10     2
2017-11-16 19:00   2.8   3.2    37   0.8  -1.0  88.0 1002.50     2
2017-11-16 18:00   2.8   3.3    13   1.7  -0.8  83.6 1002.20     2
2017-11-16 17:00   3.6   4.7     2   2.6  -1.0  77.2 1001.30    83
2017-11-16 16:00   5.5   7.5    19   3.1  -0.2  78.8 1001.00   263
2017-11-16 15:00   5.8   7.9     2   5.2   0.7  72.6 1000.50  1437
2017-11-16 14:00   9.8  11.2   357   3.6   1.1  83.4 1000.50  1603
2017-11-16 13:00   9.8  11.7   357   3.1   1.0  85.8 1000.50   559
2017-11-16 12:00   9.4  11.2   357   3.5   0.1  78.1  999.90  1675
2017-11-16 11:00   7.7   9.1     2   2.8  -0.5  78.8  999.70   471
2017-11-16 10:00   9.6  11.4    10   3.1  -1.0  74.6  998.60   191
2017-11-16 09:00   6.8  11.3   358   2.8  -1.9  71.4  997.90    63
2017-11-16 08:00  10.1  14.8   351   3.0  -1.9  70.4  996.30    15
2017-11-16 07:00   8.7  10.7    11   3.1  -2.9  64.7  995.10     2
2017-11-16 06:00  13.7  17.9   352   3.7  -1.1  70.7  994.30     2
2017-11-16 05:00  15.7  17.9   339   4.1   0.2  75.6  993.20     2
2017-11-16 04:00  14.7  17.0   348   4.4   0.5  75.7  992.30     2
2017-11-16 03:00  16.5  19.1   338   4.2   0.6  77.3  991.60     2
2017-11-16 02:00  16.6  18.7   325   4.3   1.1  79.7  990.50     2
2017-11-16 01:00  15.4  17.8   330   4.1   0.9  79.8  990.00     2
2017-11-16 00:00  15.4  17.1   317   4.1   1.3  82.1  989.60     2
2017-11-15 23:00  15.2  17.0   317   4.5   2.2  84.8  988.90     2
2017-11-15 22:00  15.5  18.0   311   5.0   2.5  83.8  988.50     2
2017-11-15 21:00  15.8  17.5   303   6.2   3.4  82.4  987.50     2
2017-11-15 20:00  17.2  18.6   305   7.3   4.4  81.5  986.60     2
2017-11-15 19:00  15.9  17.7   317   7.7   4.8  81.6  985.80     2